METAR Data
IDs: Format: Raw Decoded Include TAF

Data at: 2205 UTC 02 Aug 2021

FACT 022200Z 07004KT 0500 R01/0550 FG NSC 09/09 Q1018 NOSIG